Hillier

*Note: All times are displayed in the local standard time of the station location.
**Rain - Equipment is designed to accurately record liquid precipitation; under conditions when precipitation is not in liquid form, the data displayed may not properly reflect rainfall values.

Date Max Temp
(°C)
Min Temp
(°C)
Avg Temp
(°C)
Rain (mm) Avg RH (%) Solar Rad (kJ/m2)
Sat, Dec 16, 2017 -3.0 -15.2 -7.2 0.0 65.8 3595.5
Fri, Dec 15, 2017 -2.9 -18.0 -8.5 0.0 91.4 978.9
Thu, Dec 14, 2017 -7.9 -20.9 -13.5 0.0 71.7 3929.7
Wed, Dec 13, 2017 -10.1 -16.0 -12.8 0.0 71.9 3935.5
Tue, Dec 12, 2017 -3.7 -9.8 -6.8 0.0 88.2 1631.2
Mon, Dec 11, 2017 -3.0 -10.0 -6.6 0.0 72.1 2970.4
Sun, Dec 10, 2017 -0.3 -3.7 -1.8 0.0 75.5 1491.1
DateTime Avg Temp (°C) Rain (mm) RH (%) Solar Rad (kJ/m2)
Sun, Dec 17, 2017 17:00 -11.6 0.0 66.8 15.0
Sun, Dec 17, 2017 16:00 -11.1 0.0 63.5 104.1
Sun, Dec 17, 2017 15:00 -10.6 0.0 60.3 338.9
Sun, Dec 17, 2017 14:00 -11.7 0.0 62.3 399.1
Sun, Dec 17, 2017 13:00 -11.8 0.0 61.5 570.7
Sun, Dec 17, 2017 12:00 -12.9 0.0 64.3 646.3
Sun, Dec 17, 2017 11:00 -14.3 0.0 68.3 609.7
Sun, Dec 17, 2017 10:00 -16.3 0.0 74.5 409.3
Sun, Dec 17, 2017 09:00 -17.9 0.0 81.3 153.9
Sun, Dec 17, 2017 08:00 -19.0 0.0 86.3 7.4
Sun, Dec 17, 2017 07:00 -18.7 0.0 87.0 0.0
Sun, Dec 17, 2017 06:00 -18.1 0.0 87.5 0.0
Sun, Dec 17, 2017 05:00 -17.6 0.0 88.0 0.0
Sun, Dec 17, 2017 04:00 -16.8 0.0 86.8 0.0
Sun, Dec 17, 2017 03:00 -15.9 0.0 84.0 0.0
Sun, Dec 17, 2017 02:00 -15.9 0.0 84.3 0.0
Sun, Dec 17, 2017 01:00 -15.4 0.0 83.8 0.0
Sun, Dec 17, 2017 00:00 -15.1 0.0 83.3 0.0
Sat, Dec 16, 2017 23:00 -14.8 0.0 81.5 0.0
Sat, Dec 16, 2017 22:00 -13.7 0.0 76.3 0.0
Sat, Dec 16, 2017 21:00 -12.6 0.0 72.8 0.0
Sat, Dec 16, 2017 20:00 -12.0 0.0 69.8 0.0
Sat, Dec 16, 2017 19:00 -11.2 0.0 66.0 0.0
Sat, Dec 16, 2017 18:00 -10.1 0.0 60.5 0.0
Sat, Dec 16, 2017 17:00 -7.9 0.0 51.0 22.3
Sat, Dec 16, 2017 16:00 -5.4 0.0 41.8 227.5
Sat, Dec 16, 2017 15:00 -3.9 0.0 38.3 480.2
Sat, Dec 16, 2017 14:00 -3.2 0.0 37.8 650.0
Sat, Dec 16, 2017 13:00 -3.2 0.0 36.3 730.2
Sat, Dec 16, 2017 12:00 -3.6 0.0 38.5 694.6
Sat, Dec 16, 2017 11:00 -4.8 0.0 51.8 436.6
Sat, Dec 16, 2017 10:00 -6.0 0.0 67.0 219.4
Sat, Dec 16, 2017 09:00 -6.4 0.0 76.8 130.7
Sat, Dec 16, 2017 08:00 -7.2 0.0 81.5 4.0
Sat, Dec 16, 2017 07:00 -6.1 0.0 79.5 0.0
Sat, Dec 16, 2017 06:00 -5.1 0.0 76.0 0.0
Sat, Dec 16, 2017 05:00 -4.5 0.0 77.5 0.0
Sat, Dec 16, 2017 04:00 -4.3 0.0 77.3 0.0
Sat, Dec 16, 2017 03:00 -4.0 0.0 79.0 0.0
Sat, Dec 16, 2017 02:00 -4.0 0.0 79.5 0.0
Sat, Dec 16, 2017 01:00 -3.6 0.0 79.0 0.0
Sat, Dec 16, 2017 00:00 -3.5 0.0 80.8 0.0
Fri, Dec 15, 2017 23:00 -4.4 0.0 85.5 0.0
Fri, Dec 15, 2017 22:00 -4.7 0.0 93.5 0.0
Fri, Dec 15, 2017 21:00 -3.2 0.0 93.3 0.0
Fri, Dec 15, 2017 20:00 -3.6 0.0 91.5 0.0
Fri, Dec 15, 2017 19:00 -3.6 0.0 88.5 0.0
Fri, Dec 15, 2017 18:00 -3.9 0.0 87.8 0.0


asterix Register now to access more data! asterix